createdAt,value
2023-01-05T00:00:28.171Z,6.80
2023-01-05T00:03:31.126Z,6.90
2023-01-05T00:06:33.483Z,4.67
2023-01-05T00:09:34.782Z,5.57
2023-01-05T00:12:54.226Z,7.22
2023-01-05T00:16:17.212Z,5.35
2023-01-05T00:19:38.320Z,5.53
2023-01-05T00:22:48.537Z,8.33
2023-01-05T00:25:49.805Z,4.45
2023-01-05T00:32:10.786Z,5.97
2023-01-05T00:35:16.439Z,7.97
2023-01-05T00:41:39.931Z,6.03
2023-01-05T00:48:04.268Z,11.45
2023-01-05T00:51:05.725Z,6.70
2023-01-05T00:54:08.714Z,7.37
2023-01-05T00:57:10.693Z,5.43
2023-01-05T01:00:15.482Z,8.98
2023-01-05T01:03:17.413Z,7.85
2023-01-05T01:06:19.710Z,5.80
2023-01-05T01:09:23.329Z,8.00
2023-01-05T01:12:24.877Z,6.38
2023-01-05T01:15:29.390Z,7.85
2023-01-05T01:18:31.975Z,6.28
2023-01-05T01:21:36.699Z,9.27
2023-01-05T01:24:38.979Z,7.37
2023-01-05T01:27:42.259Z,6.97
2023-01-05T01:30:44.901Z,4.95
2023-01-05T01:33:46.860Z,8.65
2023-01-05T01:36:49.349Z,6.17
2023-01-05T01:39:51.681Z,8.73
2023-01-05T01:42:53.402Z,6.47
2023-01-05T01:45:55.324Z,5.72
2023-01-05T01:49:01.306Z,5.20
2023-01-05T01:52:02.795Z,8.03
2023-01-05T01:58:33.288Z,5.60
2023-01-05T02:01:35.209Z,7.22
2023-01-05T02:04:39.211Z,7.85
2023-01-05T02:07:44.415Z,8.27
2023-01-05T02:11:03.972Z,8.13
2023-01-05T02:14:22.620Z,8.02
2023-01-05T02:17:34.436Z,9.30
2023-01-05T02:24:56.264Z,5.60
2023-01-05T02:35:13.405Z,5.57
2023-01-05T02:38:23.603Z,4.10
2023-01-05T02:41:32.967Z,5.30
2023-01-05T02:44:34.602Z,5.73
2023-01-05T02:47:38.872Z,3.85
2023-01-05T02:50:46.691Z,7.05
2023-01-05T02:57:43.059Z,8.17
2023-01-05T03:00:51.174Z,4.87
2023-01-05T03:03:59.475Z,8.90
2023-01-05T03:07:04.376Z,5.15
2023-01-05T03:10:23.471Z,5.38
2023-01-05T03:13:41.041Z,6.73
2023-01-05T03:16:47.310Z,4.87
2023-01-05T03:19:50.488Z,7.53
2023-01-05T03:23:11.645Z,6.57
2023-01-05T03:26:33.112Z,4.95
2023-01-05T03:29:52.583Z,6.10
2023-01-05T03:36:51.318Z,4.82
2023-01-05T03:39:53.001Z,7.70
2023-01-05T03:42:56.431Z,7.70
2023-01-05T03:46:00.702Z,7.17
2023-01-05T03:49:03.473Z,7.33
2023-01-05T03:52:06.009Z,5.05
2023-01-05T03:55:08.705Z,5.28
2023-01-05T03:58:11.692Z,6.82
2023-01-05T04:01:13.042Z,5.33
2023-01-05T04:04:14.448Z,5.67
2023-01-05T04:07:16.710Z,6.90
2023-01-05T04:10:17.970Z,3.83
2023-01-05T04:13:19.568Z,3.60
2023-01-05T04:16:20.963Z,9.70
2023-01-05T04:19:22.779Z,3.97
2023-01-05T04:22:27.334Z,4.47
2023-01-05T04:25:30.688Z,4.88
2023-01-05T04:28:33.630Z,6.93
2023-01-05T04:31:34.949Z,5.23
2023-01-05T04:34:36.603Z,6.17
2023-01-05T04:37:38.615Z,5.88
2023-01-05T04:40:40.239Z,3.65
2023-01-05T04:43:41.940Z,8.63
2023-01-05T04:46:45.570Z,3.87
2023-01-05T04:49:47.330Z,5.37
2023-01-05T04:52:50.793Z,5.10
2023-01-05T04:55:52.141Z,5.63
2023-01-05T04:58:54.012Z,4.60
2023-01-05T05:01:55.292Z,5.83
2023-01-05T05:04:57.158Z,5.13
2023-01-05T05:07:59.483Z,4.47
2023-01-05T05:11:02.291Z,3.53
2023-01-05T05:14:03.500Z,4.38
2023-01-05T05:17:05.724Z,4.33
2023-01-05T05:20:09.617Z,3.70
2023-01-05T05:23:11.550Z,3.33
2023-01-05T05:26:14.224Z,4.05
2023-01-05T05:29:17.220Z,5.78
2023-01-05T05:32:18.855Z,5.33
2023-01-05T05:35:20.132Z,4.80
2023-01-05T05:38:22.088Z,3.88
2023-01-05T05:41:24.086Z,5.97
2023-01-05T05:44:25.362Z,5.15
2023-01-05T05:47:26.750Z,9.40
2023-01-05T05:50:29.490Z,5.63
2023-01-05T05:53:31.479Z,6.15
2023-01-05T05:56:34.064Z,7.40
2023-01-05T05:59:35.401Z,4.32
2023-01-05T06:02:39.149Z,2.50
2023-01-05T06:05:41.822Z,2.50
2023-01-05T06:08:44.084Z,5.53
2023-01-05T06:11:46.740Z,4.35
2023-01-05T06:14:48.069Z,1.80
2023-01-05T06:17:50.963Z,2.20
2023-01-05T06:20:59.425Z,2.43
2023-01-05T06:24:04.185Z,1.98
2023-01-05T06:27:06.750Z,2.58
2023-01-05T06:30:09.126Z,1.52
2023-01-05T06:33:11.841Z,2.77
2023-01-05T06:36:14.510Z,2.53
2023-01-05T06:39:16.944Z,3.25
2023-01-05T06:42:23.404Z,3.42
2023-01-05T06:45:25.734Z,2.75
2023-01-05T06:48:28.337Z,2.73
2023-01-05T06:51:29.628Z,2.03
2023-01-05T06:54:32.860Z,2.33
2023-01-05T06:57:37.080Z,3.90
2023-01-05T07:00:38.632Z,2.50
2023-01-05T07:03:40.306Z,1.90
2023-01-05T07:06:43.226Z,1.63
2023-01-05T07:09:48.460Z,2.00
2023-01-05T07:12:49.796Z,2.95
2023-01-05T07:15:51.066Z,1.98
2023-01-05T07:18:53.737Z,1.60
2023-01-05T07:21:57.128Z,1.27
2023-01-05T07:24:59.359Z,1.63
2023-01-05T07:28:01.931Z,2.25
2023-01-05T07:31:03.605Z,3.38
2023-01-05T07:34:06.258Z,2.57
2023-01-05T07:37:07.833Z,1.77
2023-01-05T07:40:11.118Z,3.85
2023-01-05T07:43:12.500Z,1.20
2023-01-05T07:46:15.035Z,1.38
2023-01-05T07:49:16.673Z,1.40
2023-01-05T07:52:17.991Z,1.30
2023-01-05T07:55:20.499Z,2.17
2023-01-05T07:58:21.798Z,1.27
2023-01-05T08:01:23.227Z,1.02
2023-01-05T08:04:24.935Z,2.43
2023-01-05T08:07:26.295Z,1.20
2023-01-05T08:10:29.514Z,1.48
2023-01-05T08:13:50.550Z,1.13
2023-01-05T08:16:52.015Z,3.47
2023-01-05T08:19:53.655Z,1.83
2023-01-05T08:22:54.968Z,1.20
2023-01-05T08:25:58.223Z,1.67
2023-01-05T08:29:00.585Z,1.00
2023-01-05T08:32:03.213Z,2.70
2023-01-05T08:35:05.474Z,2.47
2023-01-05T08:38:06.961Z,1.43
2023-01-05T08:41:09.133Z,2.58
2023-01-05T08:44:13.193Z,2.38
2023-01-05T08:47:14.496Z,1.98
2023-01-05T08:50:17.231Z,3.60
2023-01-05T08:53:18.531Z,3.33
2023-01-05T08:56:22.652Z,2.75
2023-01-05T08:59:23.937Z,4.18
2023-01-05T09:02:26.016Z,1.92
2023-01-05T09:05:29.198Z,1.87
2023-01-05T09:08:31.055Z,1.90
2023-01-05T09:11:35.236Z,1.88
2023-01-05T09:14:36.624Z,3.25
2023-01-05T09:17:38.814Z,2.08
2023-01-05T09:20:40.374Z,2.93
2023-01-05T09:23:41.914Z,1.57
2023-01-05T09:26:44.696Z,1.20
2023-01-05T09:29:46.025Z,3.92
2023-01-05T09:32:48.555Z,2.17
2023-01-05T09:35:54.319Z,3.40
2023-01-05T09:38:56.381Z,1.30
2023-01-05T09:42:02.525Z,1.38
2023-01-05T09:45:06.752Z,2.08
2023-01-05T09:48:13.618Z,3.38
2023-01-05T09:51:15.279Z,4.33
2023-01-05T09:54:19.387Z,3.37
2023-01-05T09:57:26.408Z,1.35
2023-01-05T10:00:29.332Z,4.90
2023-01-05T10:07:03.765Z,3.27
2023-01-05T10:10:14.859Z,3.20
2023-01-05T10:13:24.702Z,2.17
2023-01-05T10:16:29.646Z,2.10
2023-01-05T10:19:31.830Z,2.88
2023-01-05T10:22:44.341Z,1.93
2023-01-05T10:25:51.373Z,3.33
2023-01-05T10:29:01.184Z,3.75
2023-01-05T10:32:16.276Z,3.03
2023-01-05T10:36:03.440Z,3.05
2023-01-05T10:39:21.595Z,3.70
2023-01-05T10:42:34.711Z,6.80
2023-01-05T10:45:57.184Z,4.15
2023-01-05T10:49:01.228Z,2.25
2023-01-05T10:52:03.253Z,4.40
2023-01-05T10:55:15.083Z,3.90
2023-01-05T10:58:25.409Z,2.83
2023-01-05T11:01:31.793Z,4.65
2023-01-05T11:04:35.982Z,2.50
2023-01-05T11:07:49.914Z,3.17
2023-01-05T11:10:55.821Z,4.47
2023-01-05T11:13:58.479Z,2.70
2023-01-05T11:17:06.536Z,4.75
2023-01-05T11:20:17.765Z,5.15
2023-01-05T11:23:35.101Z,3.95
2023-01-05T11:26:46.333Z,2.30
2023-01-05T11:33:39.680Z,3.58
2023-01-05T11:36:42.358Z,4.75
2023-01-05T11:39:49.680Z,4.05
2023-01-05T11:42:50.973Z,5.80
2023-01-05T11:45:54.760Z,4.53
2023-01-05T11:48:57.102Z,3.88
2023-01-05T11:51:59.643Z,4.85
2023-01-05T11:55:22.333Z,4.38
2023-01-05T11:58:25.714Z,2.87
2023-01-05T12:02:04.644Z,2.63
2023-01-05T12:05:25.750Z,2.70
2023-01-05T12:08:31.325Z,4.57
2023-01-05T12:11:43.629Z,4.63
2023-01-05T12:15:04.953Z,3.93
2023-01-05T12:18:20.323Z,5.27
2023-01-05T12:21:24.295Z,6.68
2023-01-05T12:24:40.887Z,5.68
2023-01-05T12:28:05.805Z,3.17
2023-01-05T12:35:08.702Z,3.60
2023-01-05T12:38:22.600Z,5.43
2023-01-05T12:41:37.889Z,8.32
2023-01-05T12:44:50.908Z,4.05
2023-01-05T12:47:58.082Z,7.20
2023-01-05T12:51:08.718Z,3.70
2023-01-05T12:54:23.989Z,6.53
2023-01-05T12:57:32.860Z,3.63
2023-01-05T13:00:41.637Z,2.50
2023-01-05T13:03:49.850Z,3.55
2023-01-05T13:06:57.115Z,1.90
2023-01-05T13:10:03.795Z,3.97
2023-01-05T13:13:12.444Z,3.93
2023-01-05T13:16:19.843Z,3.80
2023-01-05T13:19:26.184Z,4.82
2023-01-05T13:22:32.932Z,4.95
2023-01-05T13:25:45.699Z,2.08
2023-01-05T13:28:49.419Z,4.50
2023-01-05T13:32:32.212Z,5.13
2023-01-05T13:35:48.191Z,3.42
2023-01-05T13:39:19.601Z,3.70
2023-01-05T13:42:58.301Z,3.58
2023-01-05T13:46:27.325Z,3.57
2023-01-05T13:49:53.701Z,2.20
2023-01-05T13:53:04.460Z,4.72
2023-01-05T13:56:15.320Z,4.00
2023-01-05T13:59:35.072Z,2.70
2023-01-05T14:02:41.256Z,3.60
2023-01-05T14:05:50.353Z,4.18
2023-01-05T14:08:59.008Z,1.23
2023-01-05T14:12:41.365Z,5.35
2023-01-05T14:15:43.815Z,4.07
2023-01-05T14:18:52.606Z,3.00
2023-01-05T14:22:21.785Z,1.80
2023-01-05T14:25:50.071Z,4.13
2023-01-05T14:28:52.932Z,2.25
2023-01-05T14:31:56.363Z,6.55
2023-01-05T14:35:05.240Z,3.40
2023-01-05T14:38:17.808Z,2.30
2023-01-05T14:41:26.712Z,3.20
2023-01-05T14:44:34.250Z,4.95
2023-01-05T14:47:40.982Z,2.93
2023-01-05T14:50:42.937Z,3.92
2023-01-05T14:53:46.962Z,4.68
2023-01-05T14:57:21.626Z,4.53
2023-01-05T15:04:07.848Z,2.38
2023-01-05T15:07:26.265Z,5.38
2023-01-05T15:10:44.998Z,3.92
2023-01-05T15:14:35.377Z,3.77
2023-01-05T15:17:53.097Z,2.33
2023-01-05T15:21:22.044Z,2.92
2023-01-05T15:25:11.060Z,4.43
2023-01-05T15:28:33.313Z,4.57
2023-01-05T15:31:41.804Z,4.67
2023-01-05T15:34:47.887Z,5.70
2023-01-05T15:37:51.547Z,4.43
2023-01-05T15:41:00.544Z,6.17
2023-01-05T15:44:02.526Z,6.38
2023-01-05T15:47:04.499Z,5.20
2023-01-05T15:50:17.408Z,5.78
2023-01-05T15:53:29.814Z,4.60
2023-01-05T15:56:33.566Z,5.72
2023-01-05T15:59:40.974Z,4.78
2023-01-05T16:02:42.311Z,4.93
2023-01-05T16:05:46.227Z,6.65
2023-01-05T16:08:52.079Z,5.50
2023-01-05T16:11:59.445Z,4.82
2023-01-05T16:15:04.305Z,5.15
2023-01-05T16:18:08.927Z,3.92
2023-01-05T16:21:15.894Z,5.53
2023-01-05T16:24:26.267Z,4.50
2023-01-05T16:27:29.881Z,5.93
2023-01-05T16:30:34.597Z,6.05
2023-01-05T16:33:38.988Z,5.78
2023-01-05T16:36:40.600Z,7.70
2023-01-05T16:39:44.968Z,4.53
2023-01-05T16:42:49.675Z,4.85
2023-01-05T16:45:58.631Z,5.07
2023-01-05T16:49:04.979Z,5.57
2023-01-05T16:52:08.775Z,5.97
2023-01-05T16:55:27.602Z,4.63
2023-01-05T16:58:37.541Z,6.03
2023-01-05T17:01:43.074Z,6.22
2023-01-05T17:04:47.325Z,3.92
2023-01-05T17:07:53.042Z,6.25
2023-01-05T17:10:56.278Z,7.10
2023-01-05T17:13:57.877Z,4.03
2023-01-05T17:16:59.435Z,3.92
2023-01-05T17:20:02.001Z,6.82
2023-01-05T17:23:04.435Z,5.32
2023-01-05T17:26:10.237Z,4.73
2023-01-05T17:32:40.851Z,5.95
2023-01-05T17:35:42.693Z,5.75
2023-01-05T17:38:46.589Z,5.35
2023-01-05T17:41:49.695Z,8.30
2023-01-05T17:44:51.831Z,6.45
2023-01-05T17:47:54.297Z,6.95
2023-01-05T17:50:56.882Z,4.60
2023-01-05T17:54:00.160Z,5.28
2023-01-05T18:00:38.942Z,4.03
2023-01-05T18:03:41.635Z,5.38
2023-01-05T18:06:43.197Z,6.80
2023-01-05T18:09:46.092Z,6.85
2023-01-05T18:12:48.672Z,4.70
2023-01-05T18:15:53.554Z,3.20
2023-01-05T18:18:55.227Z,4.35
2023-01-05T18:21:56.943Z,4.82
2023-01-05T18:24:59.105Z,6.15
2023-01-05T18:28:02.254Z,4.57
2023-01-05T18:31:09.992Z,3.28
2023-01-05T18:34:11.645Z,4.03
2023-01-05T18:37:21.405Z,4.68
2023-01-05T18:40:23.442Z,3.45
2023-01-05T18:43:25.795Z,4.73
2023-01-05T18:46:29.332Z,5.43
2023-01-05T18:49:32.320Z,5.30
2023-01-05T18:52:38.336Z,4.60
2023-01-05T18:55:42.615Z,6.13
2023-01-05T18:58:45.119Z,8.03
2023-01-05T19:01:48.129Z,4.35
2023-01-05T19:08:13.113Z,7.57
2023-01-05T19:11:17.088Z,5.50
2023-01-05T19:14:21.013Z,6.30
2023-01-05T19:17:22.323Z,4.25
2023-01-05T19:20:23.698Z,5.90
2023-01-05T19:23:25.712Z,4.80
2023-01-05T19:26:32.164Z,7.20
2023-01-05T19:29:35.849Z,7.78
2023-01-05T19:32:38.569Z,8.18
2023-01-05T19:35:39.974Z,8.73
2023-01-05T19:38:43.348Z,6.50
2023-01-05T19:41:47.396Z,6.97
2023-01-05T19:44:49.652Z,8.77
2023-01-05T19:47:52.259Z,8.43
2023-01-05T19:50:58.145Z,6.20
2023-01-05T19:54:02.497Z,8.13
2023-01-05T19:57:05.256Z,10.98
2023-01-05T20:00:09.119Z,10.90
2023-01-05T20:03:11.741Z,7.63
2023-01-05T20:06:14.947Z,9.00
2023-01-05T20:09:19.718Z,7.53
2023-01-05T20:12:21.275Z,9.27
2023-01-05T20:15:24.639Z,10.27
2023-01-05T20:18:26.095Z,8.52
2023-01-05T20:21:27.834Z,5.97
2023-01-05T20:24:32.250Z,4.70
2023-01-05T20:27:34.019Z,5.80
2023-01-05T20:30:37.352Z,5.28
2023-01-05T20:33:38.798Z,5.75
2023-01-05T20:40:03.774Z,4.27
2023-01-05T20:43:06.376Z,4.97
2023-01-05T20:46:08.381Z,6.30
2023-01-05T20:49:10.033Z,4.97
2023-01-05T20:52:13.529Z,7.82
2023-01-05T20:55:18.773Z,7.90
2023-01-05T20:58:21.722Z,6.75
2023-01-05T21:01:23.790Z,6.38
2023-01-05T21:04:27.734Z,6.20
2023-01-05T21:07:29.013Z,6.63
2023-01-05T21:10:31.621Z,5.90
2023-01-05T21:13:33.302Z,6.78
2023-01-05T21:16:42.018Z,7.55
2023-01-05T21:19:44.897Z,7.47
2023-01-05T21:22:46.511Z,5.30
2023-01-05T21:29:13.776Z,6.72
2023-01-05T21:32:17.024Z,7.18
2023-01-05T21:35:20.020Z,8.82
2023-01-05T21:38:24.633Z,8.20
2023-01-05T21:41:46.131Z,7.50
2023-01-05T21:44:49.248Z,8.25
2023-01-05T21:47:52.806Z,9.50
2023-01-05T21:51:16.053Z,7.88
2023-01-05T21:54:36.051Z,6.70
2023-01-05T22:01:03.969Z,7.60
2023-01-05T22:04:06.182Z,9.38
2023-01-05T22:07:09.248Z,8.15
2023-01-05T22:10:11.276Z,9.75
2023-01-05T22:13:14.071Z,8.57
2023-01-05T22:16:15.811Z,8.48
2023-01-05T22:19:18.100Z,9.85
2023-01-05T22:22:21.264Z,8.77
2023-01-05T22:25:22.723Z,8.35
2023-01-05T22:28:25.535Z,8.77
2023-01-05T22:31:29.631Z,6.93
2023-01-05T22:34:32.655Z,7.72
2023-01-05T22:37:35.581Z,8.82
2023-01-05T22:40:37.117Z,9.63
2023-01-05T22:43:41.898Z,7.07
2023-01-05T22:46:43.421Z,7.85
2023-01-05T22:49:47.374Z,8.10
2023-01-05T22:52:49.266Z,8.02
2023-01-05T22:55:52.285Z,7.40
2023-01-05T22:58:56.320Z,7.13
2023-01-05T23:01:57.933Z,7.70
2023-01-05T23:05:03.135Z,7.70
2023-01-05T23:08:05.838Z,8.60
2023-01-05T23:11:10.517Z,9.17
2023-01-05T23:14:14.143Z,8.90
2023-01-05T23:17:15.742Z,8.52
2023-01-05T23:20:22.364Z,8.18
2023-01-05T23:23:24.522Z,8.23
2023-01-05T23:26:28.804Z,7.40
2023-01-05T23:29:31.721Z,8.13
2023-01-05T23:35:57.010Z,7.28
2023-01-05T23:38:58.921Z,8.07
2023-01-05T23:42:01.754Z,8.87
2023-01-05T23:45:04.982Z,7.87
2023-01-05T23:48:06.713Z,7.57
2023-01-05T23:51:14.250Z,9.48
2023-01-05T23:54:15.910Z,9.55
2023-01-05T23:57:18.864Z,11.07
